Time;durP1;ratioP1;P1;durP2;ratioP2;P2;SDS_P1;SDS_P2;PMS_P1;PMS_P2;Temp;Humidity;BMP_temperature;BMP_pressure;BME280_temperature;BME280_humidity;BME280_pressure;Samples;Min_cycle;Max_cycle;Signal;HPM_P1;HPM_P2
2023/06/19 00:02:14;;;;;;;11.33;10.20;;;23.80;63.70;;;;;;5033374;28;20166;-74
2023/06/19 00:04:40;;;;;;;10.03;9.20;;;23.70;63.80;;;;;;5031569;28;20175;-74
2023/06/19 00:07:05;;;;;;;11.27;10.23;;;23.80;64.30;;;;;;5031291;28;20209;-74
2023/06/19 00:09:32;;;;;;;10.80;10.00;;;23.70;64.90;;;;;;5030990;28;20210;-74
2023/06/19 00:11:59;;;;;;;11.13;10.27;;;23.70;65.00;;;;;;5032249;28;20240;-74
2023/06/19 00:14:25;;;;;;;9.03;8.43;;;23.80;64.70;;;;;;5031335;28;20957;-74
2023/06/19 00:16:51;;;;;;;10.20;9.40;;;23.70;64.90;;;;;;5032060;28;20459;-74
2023/06/19 00:19:17;;;;;;;9.30;8.60;;;23.70;65.20;;;;;;5028478;28;20457;-74
2023/06/19 00:21:43;;;;;;;10.53;9.83;;;23.70;65.00;;;;;;5031487;28;20717;-74
2023/06/19 00:24:09;;;;;;;10.67;9.83;;;23.70;65.50;;;;;;5032173;28;20494;-74
2023/06/19 00:26:35;;;;;;;10.13;9.33;;;23.80;65.40;;;;;;5032320;28;20513;-74
2023/06/19 00:29:00;;;;;;;9.60;8.90;;;23.70;65.20;;;;;;5030011;28;20457;-74
2023/06/19 00:31:27;;;;;;;10.27;9.33;;;23.70;65.80;;;;;;5032077;28;20183;-74
2023/06/19 00:33:53;;;;;;;9.77;8.87;;;23.80;65.50;;;;;;5032790;28;20185;-74
2023/06/19 00:36:23;;;;;;;9.30;8.40;;;23.80;65.00;;;;;;5032815;28;20475;-74
2023/06/19 00:38:48;;;;;;;9.70;9.00;;;23.70;65.50;;;;;;5032331;28;20468;-74
2023/06/19 00:41:15;;;;;;;10.13;9.33;;;23.70;65.60;;;;;;5032040;28;20436;-74
2023/06/19 00:43:41;;;;;;;9.07;8.47;;;23.80;66.20;;;;;;5035652;28;20673;-74
2023/06/19 00:46:07;;;;;;;9.50;8.87;;;23.80;66.90;;;;;;5033223;28;20437;-74
2023/06/19 00:48:34;;;;;;;10.67;9.80;;;23.80;67.00;;;;;;5034570;28;20213;-74
2023/06/19 00:51:00;;;;;;;10.00;9.20;;;23.80;67.10;;;;;;5031336;28;20187;-74
2023/06/19 00:53:25;;;;;;;9.80;9.10;;;23.80;67.40;;;;;;5031785;28;20439;-74
2023/06/19 00:55:52;;;;;;;10.10;9.30;;;23.80;67.70;;;;;;5030508;28;20202;-74
2023/06/19 00:58:21;;;;;;;9.83;9.03;;;23.80;67.80;;;;;;5032314;28;20229;-74
2023/06/19 01:00:48;;;;;;;9.40;8.70;;;23.80;67.90;;;;;;5030554;28;20490;-74
2023/06/19 01:03:14;;;;;;;9.70;8.87;;;23.70;67.90;;;;;;5033469;28;20432;-73
2023/06/19 01:05:39;;;;;;;9.97;9.23;;;23.70;68.20;;;;;;5029996;28;20436;-73
2023/06/19 01:08:37;;;;;;;9.90;8.97;;;23.70;68.30;;;;;;5031988;28;20436;-73
2023/06/19 01:11:03;;;;;;;10.10;9.40;;;23.70;68.70;;;;;;5029565;28;20690;-74
2023/06/19 01:13:47;;;;;;;9.90;9.00;;;23.80;70.10;;;;;;5033490;28;20413;-74
2023/06/19 01:16:14;;;;;;;8.83;8.03;;;23.80;69.30;;;;;;5030073;28;20575;-74
2023/06/19 01:18:40;;;;;;;9.43;8.73;;;23.80;68.40;;;;;;5029547;28;20460;-74
2023/06/19 01:21:16;;;;;;;9.33;8.73;;;23.80;69.00;;;;;;5031511;28;20520;-74
2023/06/19 01:23:42;;;;;;;9.93;9.07;;;23.70;68.90;;;;;;5037172;28;20439;-73
2023/06/19 01:26:08;;;;;;;9.63;8.73;;;23.60;70.10;;;;;;5042102;28;20447;-74
2023/06/19 01:28:37;;;;;;;10.77;9.87;;;23.50;70.40;;;;;;5046692;28;20459;-74
2023/06/19 01:31:11;;;;;;;10.63;9.83;;;23.50;71.40;;;;;;5035332;28;20232;-73
2023/06/19 01:33:39;;;;;;;10.27;9.57;;;23.50;72.00;;;;;;5034611;28;20869;-74
2023/06/19 01:36:07;;;;;;;9.13;8.33;;;23.30;72.80;;;;;;5031459;28;20460;-74
2023/06/19 01:38:33;;;;;;;8.83;7.93;;;23.20;74.00;;;;;;5033167;28;20481;-74
2023/06/19 01:41:00;;;;;;;8.17;7.57;;;23.10;76.20;;;;;;5035715;28;20881;-73
2023/06/19 01:43:28;;;;;;;8.60;8.00;;;23.00;78.20;;;;;;5029963;28;20438;-75
2023/06/19 01:45:54;;;;;;;9.70;8.90;;;23.00;79.70;;;;;;5027034;28;20444;-74
2023/06/19 01:48:20;;;;;;;8.47;7.80;;;23.00;81.30;;;;;;5030026;28;20429;-74
2023/06/19 01:50:47;;;;;;;7.97;7.37;;;23.00;82.10;;;;;;5034868;28;20444;-74
2023/06/19 01:53:13;;;;;;;8.67;7.87;;;22.90;83.70;;;;;;5029677;28;20221;-74
2023/06/19 01:55:38;;;;;;;10.00;7.97;;;22.90;85.20;;;;;;5034282;28;20443;-73
2023/06/19 01:58:04;;;;;;;8.13;7.53;;;22.80;86.80;;;;;;5041169;28;20166;-74
2023/06/19 02:00:32;;;;;;;8.23;7.53;;;22.80;88.30;;;;;;5035740;28;20186;-74
2023/06/19 02:02:57;;;;;;;8.50;7.70;;;22.80;90.00;;;;;;5028559;28;20658;-73
2023/06/19 02:05:23;;;;;;;8.10;7.47;;;22.70;91.00;;;;;;5033482;28;20431;-73
2023/06/19 02:07:48;;;;;;;8.03;7.30;;;22.70;92.40;;;;;;5040172;28;20261;-74
2023/06/19 02:10:14;;;;;;;7.70;7.00;;;22.70;93.80;;;;;;5039705;28;20205;-74
2023/06/19 02:12:39;;;;;;;8.60;7.80;;;22.60;94.90;;;;;;5031741;28;20220;-74
2023/06/19 02:15:05;;;;;;;7.83;7.17;;;22.60;96.30;;;;;;5028139;28;20189;-73
2023/06/19 02:17:31;;;;;;;8.83;6.47;;;22.60;97.10;;;;;;5031581;28;20206;-73
2023/06/19 02:19:56;;;;;;;7.63;7.13;;;22.60;98.00;;;;;;5034608;28;20472;-74
2023/06/19 02:22:23;;;;;;;7.93;7.23;;;22.60;98.70;;;;;;5031008;28;20182;-74
2023/06/19 02:24:48;;;;;;;8.47;7.67;;;22.60;99.40;;;;;;5030463;28;20190;-74
2023/06/19 02:27:15;;;;;;;7.73;7.23;;;22.60;99.90;;;;;;5040171;28;20442;-74
2023/06/19 02:29:41;;;;;;;7.93;7.40;;;22.60;99.90;;;;;;5027038;28;20317;-74
2023/06/19 02:32:07;;;;;;;7.50;6.97;;;22.60;99.90;;;;;;5032359;28;21009;-74
2023/06/19 02:34:33;;;;;;;8.03;7.33;;;22.60;99.90;;;;;;5034760;28;20273;-73
2023/06/19 02:36:59;;;;;;;8.00;7.30;;;22.60;99.90;;;;;;5045111;28;20267;-74
2023/06/19 02:39:24;;;;;;;7.17;6.57;;;22.80;99.90;;;;;;5039469;28;20452;-74
2023/06/19 02:41:50;;;;;;;7.07;6.57;;;22.70;99.90;;;;;;5041675;28;20190;-74
2023/06/19 02:44:15;;;;;;;7.20;6.63;;;22.70;99.90;;;;;;5038992;28;20166;-74
2023/06/19 02:46:41;;;;;;;7.80;6.97;;;22.60;99.90;;;;;;5030951;28;20197;-74
2023/06/19 02:49:06;;;;;;;7.63;6.97;;;22.50;99.90;;;;;;5043826;28;20201;-74
2023/06/19 02:51:32;;;;;;;7.00;6.50;;;22.50;99.90;;;;;;5045077;28;20186;-74
2023/06/19 02:53:57;;;;;;;6.87;6.30;;;22.50;99.90;;;;;;5038124;28;20186;-74
2023/06/19 02:56:25;;;;;;;6.53;6.03;;;22.50;99.90;;;;;;5038100;28;20285;-74
2023/06/19 02:58:50;;;;;;;7.10;6.60;;;22.50;99.90;;;;;;5042582;28;20206;-74
2023/06/19 03:01:16;;;;;;;6.33;5.83;;;22.40;99.90;;;;;;5029770;28;20433;-74
2023/06/19 03:03:41;;;;;;;6.13;5.63;;;22.40;99.90;;;;;;5028563;28;20192;-74
2023/06/19 03:06:08;;;;;;;6.03;5.33;;;22.40;99.90;;;;;;5031790;28;20190;-74
2023/06/19 03:08:34;;;;;;;6.53;6.13;;;22.40;99.90;;;;;;5042489;28;20721;-74
2023/06/19 03:11:01;;;;;;;7.07;6.57;;;22.30;99.90;;;;;;5042682;28;20435;-74
2023/06/19 03:13:26;;;;;;;6.30;5.90;;;22.30;99.90;;;;;;5039396;28;20494;-74
2023/06/19 03:15:51;;;;;;;6.57;6.00;;;22.30;99.90;;;;;;5033275;28;20456;-74
2023/06/19 03:18:17;;;;;;;5.80;5.40;;;22.20;99.90;;;;;;5028426;28;20873;-73
2023/06/19 03:20:43;;;;;;;5.63;5.23;;;22.20;99.90;;;;;;5036188;28;20177;-74
2023/06/19 03:23:08;;;;;;;5.47;5.07;;;22.20;99.90;;;;;;5041595;28;20181;-74
2023/06/19 03:25:34;;;;;;;5.40;5.10;;;22.20;99.90;;;;;;5028107;28;20606;-74
2023/06/19 03:28:04;;;;;;;6.40;5.90;;;22.30;99.90;;;;;;5029904;28;20166;-74
2023/06/19 03:30:30;;;;;;;6.00;5.50;;;22.20;99.90;;;;;;5035395;28;20433;-74
2023/06/19 03:32:55;;;;;;;5.30;4.90;;;22.30;99.90;;;;;;5030266;28;20838;-74
2023/06/19 03:35:21;;;;;;;4.90;4.50;;;22.40;99.90;;;;;;5033430;28;20182;-74
2023/06/19 03:37:46;;;;;;;5.10;4.80;;;22.40;99.90;;;;;;5032673;28;20205;-74
2023/06/19 03:40:13;;;;;;;5.17;4.77;;;22.20;99.90;;;;;;5042740;28;20240;-74
2023/06/19 03:42:40;;;;;;;4.80;4.40;;;22.10;99.90;;;;;;5043599;28;20166;-74
2023/06/19 03:45:06;;;;;;;5.67;5.27;;;21.90;99.90;;;;;;5044630;28;20799;-74
2023/06/19 03:47:31;;;;;;;4.80;4.40;;;21.50;99.90;;;;;;5041080;28;20440;-74
2023/06/19 03:49:57;;;;;;;5.00;4.60;;;21.10;99.90;;;;;;5031327;28;21063;-73
2023/06/19 03:52:22;;;;;;;5.57;5.17;;;20.80;99.90;;;;;;5041077;28;20177;-73
2023/06/19 03:54:48;;;;;;;5.93;5.43;;;20.70;99.90;;;;;;5043007;28;20384;-73
2023/06/19 03:57:13;;;;;;;6.10;5.50;;;20.50;99.90;;;;;;5035545;28;20209;-73
2023/06/19 03:59:39;;;;;;;5.03;4.63;;;20.40;99.90;;;;;;5032429;28;20190;-73
2023/06/19 04:02:05;;;;;;;6.50;4.60;;;20.30;99.90;;;;;;5040985;28;20686;-73
2023/06/19 04:04:30;;;;;;;7.73;4.90;;;20.30;99.90;;;;;;5034131;28;20186;-73
2023/06/19 04:06:56;;;;;;;4.50;4.20;;;20.30;99.90;;;;;;5046357;28;20193;-73
2023/06/19 04:09:21;;;;;;;6.57;6.07;;;20.30;99.90;;;;;;5035558;28;20301;-74
2023/06/19 04:11:47;;;;;;;3.97;3.70;;;20.40;99.90;;;;;;5032588;28;20190;-73
2023/06/19 04:14:12;;;;;;;5.20;4.70;;;20.40;99.90;;;;;;5044002;28;20170;-73
2023/06/19 04:16:38;;;;;;;5.47;5.00;;;20.50;99.90;;;;;;5036238;28;20267;-73
2023/06/19 04:19:03;;;;;;;4.83;4.53;;;20.30;99.90;;;;;;5047168;28;20806;-73
2023/06/19 04:21:29;;;;;;;5.47;5.07;;;20.30;99.90;;;;;;5042166;28;20174;-74
2023/06/19 04:23:54;;;;;;;6.33;5.50;;;20.20;99.90;;;;;;5041530;28;20196;-73
2023/06/19 04:26:21;;;;;;;5.70;5.30;;;20.20;99.90;;;;;;5034300;28;20182;-73
2023/06/19 04:28:46;;;;;;;5.17;4.77;;;20.40;99.90;;;;;;5039887;28;20197;-73
2023/06/19 04:31:12;;;;;;;4.97;4.50;;;20.40;99.90;;;;;;5031881;28;20463;-73
2023/06/19 04:33:40;;;;;;;4.70;4.30;;;20.60;99.90;;;;;;5033310;28;20182;-73
2023/06/19 04:36:05;;;;;;;4.90;4.50;;;20.70;99.90;;;;;;5031934;28;20202;-73
2023/06/19 04:38:31;;;;;;;4.10;3.80;;;20.80;99.90;;;;;;5039314;28;20463;-73
2023/06/19 04:40:57;;;;;;;4.90;4.50;;;20.90;99.90;;;;;;5033385;28;20189;-73
2023/06/19 04:43:24;;;;;;;4.43;4.17;;;21.00;99.90;;;;;;5042981;28;20166;-73
2023/06/19 04:45:50;;;;;;;4.70;4.10;;;21.10;99.90;;;;;;5040959;28;20435;-73
2023/06/19 04:48:15;;;;;;;5.17;4.77;;;21.20;99.90;;;;;;5039362;28;20429;-73
2023/06/19 04:50:41;;;;;;;4.93;4.53;;;21.30;99.90;;;;;;5031742;28;20186;-73
2023/06/19 04:53:06;;;;;;;5.00;4.17;;;21.40;99.90;;;;;;5031479;28;20547;-74
2023/06/19 04:55:32;;;;;;;4.90;4.50;;;21.40;99.90;;;;;;5034900;28;20173;-73
2023/06/19 04:57:57;;;;;;;4.50;4.17;;;21.50;99.90;;;;;;5041636;28;20217;-75
2023/06/19 05:00:23;;;;;;;5.40;4.60;;;21.50;99.90;;;;;;5035510;28;20635;-73
2023/06/19 05:02:49;;;;;;;5.40;4.60;;;21.50;99.90;;;;;;5030720;28;20182;-70
2023/06/19 05:05:16;;;;;;;6.70;3.70;;;21.70;99.90;;;;;;5039085;28;20213;-71
2023/06/19 05:07:42;;;;;;;4.43;4.03;;;21.90;99.90;;;;;;5032204;28;20800;-73
2023/06/19 05:10:08;;;;;;;4.60;4.20;;;21.90;99.90;;;;;;5027825;28;20563;-74
2023/06/19 05:12:35;;;;;;;4.73;4.33;;;21.90;99.90;;;;;;5033445;28;20445;-74
2023/06/19 05:15:01;;;;;;;5.67;4.57;;;21.80;99.90;;;;;;5032782;28;20447;-74
2023/06/19 05:17:27;;;;;;;4.70;4.40;;;21.80;99.90;;;;;;5033786;28;20538;-73
2023/06/19 05:19:52;;;;;;;4.27;3.97;;;21.80;99.90;;;;;;5033240;28;20444;-73
2023/06/19 05:22:18;;;;;;;4.70;4.40;;;21.70;99.90;;;;;;5033630;28;20178;-73
2023/06/19 05:24:44;;;;;;;4.30;4.00;;;21.80;99.90;;;;;;5033665;28;20181;-73
2023/06/19 05:27:10;;;;;;;3.70;3.50;;;21.70;99.90;;;;;;5033618;28;20171;-74
2023/06/19 05:29:35;;;;;;;3.73;3.43;;;21.60;99.90;;;;;;5031770;28;20437;-73
2023/06/19 05:32:01;;;;;;;4.33;4.03;;;21.70;99.90;;;;;;5031682;28;20185;-73
2023/06/19 05:34:27;;;;;;;4.27;3.97;;;21.80;99.90;;;;;;5033257;28;20186;-74
2023/06/19 05:36:52;;;;;;;4.17;3.93;;;21.80;99.90;;;;;;5033371;28;20213;-74
2023/06/19 05:39:18;;;;;;;4.60;4.30;;;21.70;99.90;;;;;;5031756;28;20600;-73
2023/06/19 05:41:45;;;;;;;5.20;4.70;;;21.80;99.90;;;;;;5033280;28;20202;-73
2023/06/19 05:44:15;;;;;;;4.53;4.23;;;22.20;99.90;;;;;;5031761;28;20424;-74
2023/06/19 05:46:40;;;;;;;4.63;4.30;;;22.50;99.90;;;;;;5030522;28;20429;-73
2023/06/19 05:49:06;;;;;;;4.67;4.27;;;22.60;99.90;;;;;;5024305;28;20449;-74
2023/06/19 05:51:31;;;;;;;5.20;4.80;;;22.90;99.90;;;;;;5033120;28;20206;-74
2023/06/19 05:54:03;;;;;;;4.67;4.27;;;23.20;99.90;;;;;;5032860;28;20364;-74
2023/06/19 05:56:28;;;;;;;3.90;3.70;;;23.40;99.90;;;;;;5032072;28;20220;-73
2023/06/19 05:58:54;;;;;;;4.77;4.37;;;24.00;99.90;;;;;;5032553;28;20440;-73
2023/06/19 06:01:19;;;;;;;4.23;3.93;;;23.70;99.90;;;;;;5031949;28;20705;-73
2023/06/19 06:03:45;;;;;;;4.40;4.10;;;23.80;99.90;;;;;;5032221;28;20235;-74
2023/06/19 06:06:10;;;;;;;4.70;4.40;;;23.60;99.90;;;;;;5032866;28;20174;-73
2023/06/19 06:08:36;;;;;;;4.63;4.23;;;23.40;99.90;;;;;;5032331;28;20308;-73
2023/06/19 06:11:02;;;;;;;4.23;3.93;;;23.30;99.90;;;;;;5032774;28;20174;-73
2023/06/19 06:13:27;;;;;;;4.97;4.60;;;23.10;99.90;;;;;;5032695;28;20599;-74
2023/06/19 06:15:53;;;;;;;4.50;4.20;;;23.20;99.90;;;;;;5023496;28;20671;-73
2023/06/19 06:18:19;;;;;;;4.70;4.30;;;23.30;99.90;;;;;;5032157;28;20178;-74
2023/06/19 06:20:45;;;;;;;4.93;4.53;;;23.50;99.90;;;;;;5032627;28;20392;-74
2023/06/19 06:23:10;;;;;;;4.07;3.87;;;23.70;99.90;;;;;;5032573;28;20500;-74
2023/06/19 06:25:36;;;;;;;5.30;4.90;;;24.00;99.90;;;;;;5032577;28;20252;-74
2023/06/19 06:28:01;;;;;;;3.60;3.40;;;24.40;99.90;;;;;;5029895;28;20170;-74
2023/06/19 06:30:30;;;;;;;4.70;4.40;;;24.60;99.90;;;;;;5023830;28;20559;-74
2023/06/19 06:32:55;;;;;;;4.20;3.90;;;24.70;99.90;;;;;;5032363;28;20228;-74
2023/06/19 06:35:21;;;;;;;4.27;3.90;;;25.00;99.90;;;;;;5032438;28;20413;-74
2023/06/19 06:37:49;;;;;;;3.90;3.50;;;25.30;99.90;;;;;;5032313;28;20198;-74
2023/06/19 06:40:14;;;;;;;4.50;4.20;;;25.40;99.90;;;;;;5023003;28;20214;-74
2023/06/19 06:42:40;;;;;;;3.40;3.20;;;25.60;99.90;;;;;;5025988;28;20829;-74
2023/06/19 06:45:07;;;;;;;3.57;3.37;;;25.80;99.90;;;;;;5030406;28;20658;-73
2023/06/19 06:47:32;;;;;;;3.43;3.23;;;25.80;99.90;;;;;;5031606;28;20185;-74
2023/06/19 06:49:58;;;;;;;4.90;3.20;;;25.90;99.90;;;;;;5030720;28;21003;-74
2023/06/19 06:52:24;;;;;;;3.50;3.30;;;25.80;99.90;;;;;;5032008;28;20182;-74
2023/06/19 06:54:50;;;;;;;3.63;3.33;;;25.40;99.90;;;;;;5031948;28;20790;-74
2023/06/19 06:57:16;;;;;;;3.97;3.60;;;25.10;99.90;;;;;;5031364;28;20277;-73
2023/06/19 06:59:41;;;;;;;3.97;3.67;;;24.90;99.90;;;;;;5023086;28;20891;-73
2023/06/19 07:02:07;;;;;;;3.70;3.30;;;24.80;99.90;;;;;;5031968;28;20166;-74
2023/06/19 07:04:32;;;;;;;4.20;3.87;;;24.90;99.90;;;;;;5031978;28;20170;-75
2023/06/19 07:06:58;;;;;;;3.47;3.20;;;25.00;99.90;;;;;;5031924;28;20194;-75
2023/06/19 07:09:23;;;;;;;4.60;3.70;;;25.10;99.90;;;;;;5031222;28;20221;-74
2023/06/19 07:11:49;;;;;;;3.50;3.20;;;25.20;99.90;;;;;;5031922;28;20182;-75
2023/06/19 07:14:17;;;;;;;4.00;3.73;;;25.40;99.90;;;;;;5030398;28;20182;-75
2023/06/19 07:16:44;;;;;;;3.97;3.70;;;25.60;99.90;;;;;;5023461;28;20197;-75
2023/06/19 07:19:09;;;;;;;3.40;3.20;;;25.70;99.90;;;;;;5031553;28;20458;-76
2023/06/19 07:21:35;;;;;;;3.63;3.43;;;25.50;99.90;;;;;;5031853;28;20906;-76
2023/06/19 07:24:01;;;;;;;3.93;3.70;;;25.50;99.90;;;;;;5031778;28;20169;-75
2023/06/19 07:26:26;;;;;;;3.80;3.40;;;25.80;99.90;;;;;;5031742;28;20227;-75
2023/06/19 07:28:52;;;;;;;3.20;3.00;;;26.10;99.90;;;;;;5031481;28;20190;-76
2023/06/19 07:31:17;;;;;;;3.50;3.20;;;26.10;99.90;;;;;;5026739;28;20617;-75
2023/06/19 07:33:43;;;;;;;3.60;3.40;;;26.20;99.90;;;;;;5031648;28;20257;-75
2023/06/19 07:36:13;;;;;;;3.43;3.23;;;26.40;99.90;;;;;;5026235;28;20202;-75
2023/06/19 07:38:40;;;;;;;4.13;3.73;;;26.50;99.90;;;;;;5029775;28;20676;-74
2023/06/19 07:41:07;;;;;;;3.43;3.13;;;26.90;99.90;;;;;;5031530;28;20500;-75
2023/06/19 07:43:32;;;;;;;7.23;3.40;;;27.20;99.10;;;;;;5031512;28;20425;-76
2023/06/19 07:45:59;;;;;;;3.60;3.40;;;27.70;98.10;;;;;;5030695;28;20405;-77
2023/06/19 07:48:24;;;;;;;3.93;3.63;;;28.30;96.90;;;;;;5019478;28;20207;-76
2023/06/19 07:50:50;;;;;;;6.50;4.03;;;28.80;96.00;;;;;;5024931;28;20524;-77
2023/06/19 07:53:15;;;;;;;3.70;3.50;;;29.20;94.60;;;;;;5022338;28;20171;-76
2023/06/19 07:55:41;;;;;;;4.37;4.07;;;29.10;94.50;;;;;;5031363;28;20661;-75
2023/06/19 07:58:07;;;;;;;3.70;3.50;;;28.70;93.50;;;;;;5031350;28;20179;-75
2023/06/19 08:00:33;;;;;;;4.10;3.80;;;28.40;93.50;;;;;;5031136;28;20257;-76
2023/06/19 08:02:58;;;;;;;4.30;3.90;;;28.10;94.00;;;;;;5029753;28;20204;-71
2023/06/19 08:05:24;;;;;;;4.30;4.00;;;27.50;95.30;;;;;;5023046;28;20604;-73
2023/06/19 08:07:49;;;;;;;4.10;3.90;;;27.30;95.10;;;;;;5031287;28;20586;-73
2023/06/19 08:10:15;;;;;;;3.60;3.40;;;27.10;95.80;;;;;;5030756;28;20217;-72
2023/06/19 08:12:42;;;;;;;4.40;4.00;;;27.00;96.10;;;;;;5030019;28;20200;-72
2023/06/19 08:15:08;;;;;;;4.43;4.13;;;26.70;96.60;;;;;;5031339;28;20536;-71
2023/06/19 08:17:34;;;;;;;3.80;3.50;;;26.90;96.90;;;;;;5031193;28;20471;-72
2023/06/19 08:20:00;;;;;;;3.87;3.63;;;26.80;96.60;;;;;;5030217;28;20510;-72
2023/06/19 08:22:25;;;;;;;4.37;3.90;;;27.00;97.00;;;;;;5034607;28;20425;-73
2023/06/19 08:24:51;;;;;;;3.87;3.57;;;27.00;97.10;;;;;;5034793;28;20174;-72
2023/06/19 08:27:16;;;;;;;4.10;3.70;;;26.80;96.80;;;;;;5034723;28;20166;-73
2023/06/19 08:29:43;;;;;;;4.20;3.73;;;26.70;97.80;;;;;;5034343;28;20190;-74
2023/06/19 08:32:09;;;;;;;4.70;4.40;;;26.90;97.40;;;;;;5034580;28;20269;-72
2023/06/19 08:34:35;;;;;;;5.80;5.40;;;27.20;97.40;;;;;;5027408;28;20808;-73
2023/06/19 08:37:00;;;;;;;4.93;4.63;;;27.10;96.20;;;;;;5023079;28;20467;-74
2023/06/19 08:39:26;;;;;;;4.17;3.87;;;27.00;96.70;;;;;;5025739;28;20436;-72
2023/06/19 08:41:53;;;;;;;5.00;4.70;;;27.10;97.00;;;;;;5034158;28;20264;-73
2023/06/19 08:44:18;;;;;;;4.73;4.43;;;27.50;96.60;;;;;;5034453;28;20186;-73
2023/06/19 08:46:44;;;;;;;3.77;3.50;;;27.70;95.80;;;;;;5034487;28;20431;-73
2023/06/19 08:49:10;;;;;;;3.90;3.60;;;28.00;94.90;;;;;;5033923;28;20194;-73
2023/06/19 08:51:37;;;;;;;3.87;3.57;;;28.50;94.00;;;;;;5027560;28;20245;-72
2023/06/19 08:54:04;;;;;;;4.77;4.33;;;29.10;93.40;;;;;;5023611;28;20440;-73
2023/06/19 08:56:34;;;;;;;3.80;3.50;;;29.60;91.60;;;;;;5033975;28;20542;-73
2023/06/19 08:59:15;;;;;;;4.00;3.70;;;30.20;90.40;;;;;;5033672;28;20468;-74
2023/06/19 09:01:52;;;;;;;3.83;3.53;;;29.90;87.10;;;;;;5034131;28;20429;-74
2023/06/19 09:04:22;;;;;;;3.13;2.93;;;30.10;87.60;;;;;;5033853;28;20500;-73
2023/06/19 09:06:52;;;;;;;3.43;3.23;;;30.30;84.50;;;;;;5032078;28;20441;-73
2023/06/19 09:09:20;;;;;;;3.40;3.20;;;30.50;83.50;;;;;;5025018;28;20460;-74
2023/06/19 09:12:00;;;;;;;3.37;3.17;;;30.70;82.40;;;;;;5033873;28;20471;-73
2023/06/19 09:14:33;;;;;;;3.53;3.33;;;31.30;79.90;;;;;;5033517;28;20496;-74
2023/06/19 09:17:00;;;;;;;3.63;3.33;;;31.60;76.60;;;;;;5033524;28;20467;-73
2023/06/19 09:19:26;;;;;;;3.30;3.10;;;31.80;76.30;;;;;;5033310;28;20524;-74
2023/06/19 09:21:51;;;;;;;3.33;3.13;;;31.70;74.00;;;;;;5033727;28;20563;-75
2023/06/19 09:24:17;;;;;;;3.80;3.60;;;31.40;73.80;;;;;;5031886;28;20225;-74
2023/06/19 09:26:43;;;;;;;3.33;3.13;;;31.00;74.00;;;;;;5033491;28;20189;-74
2023/06/19 09:29:18;;;;;;;3.30;3.10;;;31.20;73.60;;;;;;5032989;28;20655;-73
2023/06/19 09:31:44;;;;;;;4.03;2.60;;;31.80;70.90;;;;;;5033353;28;20458;-74
2023/06/19 09:34:10;;;;;;;3.10;2.90;;;31.70;70.60;;;;;;5033392;28;20567;-73
2023/06/19 09:36:36;;;;;;;3.20;2.93;;;31.50;69.60;;;;;;5033296;28;20248;-73
2023/06/19 09:39:05;;;;;;;3.13;2.93;;;31.30;69.70;;;;;;5031300;28;20272;-73
2023/06/19 09:41:32;;;;;;;3.70;3.50;;;31.10;70.70;;;;;;5025509;28;20783;-73
2023/06/19 09:43:59;;;;;;;4.20;3.90;;;30.60;72.70;;;;;;5032119;28;20460;-70
2023/06/19 09:46:30;;;;;;;4.97;4.10;;;29.90;75.50;;;;;;5033079;28;20466;-71
2023/06/19 09:49:01;;;;;;;4.13;3.83;;;29.40;76.90;;;;;;5031519;28;21012;-68
2023/06/19 09:51:41;;;;;;;4.30;3.90;;;29.10;78.40;;;;;;5026413;28;20839;-78
2023/06/19 09:54:09;;;;;;;3.40;3.20;;;29.60;78.70;;;;;;5024516;28;20517;-78
2023/06/19 09:56:35;;;;;;;4.07;3.80;;;30.10;77.20;;;;;;5031143;28;20468;-77
2023/06/19 09:59:02;;;;;;;4.63;4.33;;;30.60;76.40;;;;;;5032327;28;20969;-69
2023/06/19 10:01:30;;;;;;;4.60;4.30;;;31.20;75.30;;;;;;5032973;28;20475;-70
2023/06/19 10:04:07;;;;;;;4.40;4.03;;;31.60;74.30;;;;;;5024166;28;20428;-76
2023/06/19 10:06:33;;;;;;;4.83;4.53;;;33.10;72.00;;;;;;5013030;28;20453;-73
2023/06/19 10:09:07;;;;;;;5.23;4.83;;;34.10;68.80;;;;;;5018252;28;20512;-74
2023/06/19 10:11:51;;;;;;;5.47;4.90;;;33.80;67.50;;;;;;5025421;28;20173;-73
2023/06/19 10:14:21;;;;;;;5.53;5.23;;;33.60;67.00;;;;;;5032734;28;20423;-73
2023/06/19 10:16:47;;;;;;;4.73;4.37;;;33.00;68.00;;;;;;5032532;28;20506;-73
2023/06/19 10:19:17;;;;;;;3.87;3.67;;;32.90;68.10;;;;;;5032180;28;20957;-74
2023/06/19 10:21:45;;;;;;;4.30;4.00;;;33.10;67.10;;;;;;5032624;28;20536;-73
2023/06/19 10:24:15;;;;;;;4.80;4.50;;;33.90;65.60;;;;;;5031578;28;20440;-73
2023/06/19 10:26:41;;;;;;;5.03;4.73;;;34.70;62.80;;;;;;5032618;28;20470;-74
2023/06/19 10:29:17;;;;;;;4.50;4.30;;;35.40;61.10;;;;;;5029073;28;20453;-73
2023/06/19 10:31:44;;;;;;;4.97;4.67;;;36.00;58.90;;;;;;5029601;28;20532;-73
2023/06/19 10:34:10;;;;;;;4.07;3.87;;;36.00;57.50;;;;;;5032283;28;20874;-73
2023/06/19 10:36:35;;;;;;;4.20;4.00;;;36.10;56.90;;;;;;5032354;28;20460;-74
2023/06/19 10:39:01;;;;;;;4.90;4.47;;;35.20;58.00;;;;;;5030408;28;20457;-73
2023/06/19 10:41:26;;;;;;;4.73;4.33;;;34.50;59.00;;;;;;5032270;28;20515;-73
2023/06/19 10:44:01;;;;;;;4.50;4.30;;;33.90;60.10;;;;;;5031740;28;20171;-72
2023/06/19 10:46:35;;;;;;;7.30;5.00;;;33.20;62.40;;;;;;5024148;28;20271;-70
2023/06/19 10:49:03;;;;;;;5.27;4.83;;;33.20;62.90;;;;;;5030705;28;20447;-71
2023/06/19 10:51:29;;;;;;;4.70;4.50;;;32.90;62.90;;;;;;5031860;28;20457;-71
2023/06/19 10:53:55;;;;;;;4.77;4.47;;;32.70;63.70;;;;;;5030367;28;20574;-71
2023/06/19 10:56:23;;;;;;;8.20;5.30;;;32.40;65.40;;;;;;5022824;28;20401;-72
2023/06/19 10:58:55;;;;;;;4.77;4.47;;;32.80;64.60;;;;;;5031486;28;21010;-72
2023/06/19 11:01:22;;;;;;;4.93;4.63;;;32.90;65.10;;;;;;5031955;28;20412;-71
2023/06/19 11:03:47;;;;;;;5.57;4.67;;;32.80;65.10;;;;;;5031896;28;20433;-72
2023/06/19 11:06:20;;;;;;;5.40;5.10;;;32.10;65.60;;;;;;5031875;28;20425;-71
2023/06/19 11:08:52;;;;;;;5.50;5.10;;;32.10;66.30;;;;;;5047410;22;20229;-67
2023/06/19 11:11:18;;;;;;;5.07;4.70;;;32.10;66.50;;;;;;5005152;28;20922;-67
2023/06/19 11:13:43;;;;;;;5.93;5.10;;;32.10;66.70;;;;;;5007047;28;20419;-67
2023/06/19 11:16:09;;;;;;;6.20;5.73;;;32.60;67.20;;;;;;4992530;28;20199;-68
2023/06/19 11:18:35;;;;;;;5.93;4.90;;;33.60;64.80;;;;;;4992268;28;20172;-68
2023/06/19 11:21:01;;;;;;;5.43;5.03;;;35.00;62.00;;;;;;4992485;28;20983;-68
2023/06/19 11:23:30;;;;;;;5.30;4.90;;;36.20;59.70;;;;;;4993313;28;20168;-68
2023/06/19 11:26:05;;;;;;;5.73;5.33;;;36.60;57.90;;;;;;5007746;28;20951;-68
2023/06/19 11:28:31;;;;;;;5.10;4.80;;;35.80;57.70;;;;;;4992091;28;20429;-67
2023/06/19 11:31:01;;;;;;;5.07;4.70;;;35.10;58.10;;;;;;4992522;28;20415;-67
2023/06/19 11:33:27;;;;;;;5.47;5.07;;;35.70;58.50;;;;;;4992517;28;20202;-68
2023/06/19 11:35:54;;;;;;;4.83;4.53;;;37.60;56.10;;;;;;4992315;28;20450;-68
2023/06/19 11:38:22;;;;;;;5.03;4.47;;;39.50;52.90;;;;;;4992387;28;20179;-68
2023/06/19 11:40:48;;;;;;;5.73;5.33;;;40.70;50.20;;;;;;5001539;28;20461;-68
2023/06/19 11:43:24;;;;;;;5.73;5.30;;;40.80;48.00;;;;;;5011089;28;20453;-69
2023/06/19 11:45:51;;;;;;;7.20;5.47;;;41.30;47.00;;;;;;5011947;28;20413;-68
2023/06/19 11:48:26;;;;;;;5.50;5.20;;;41.50;45.30;;;;;;5007833;28;20496;-68
2023/06/19 11:50:55;;;;;;;5.67;5.27;;;40.70;45.40;;;;;;4997030;28;20438;-68
2023/06/19 11:53:22;;;;;;;5.87;4.83;;;40.70;44.60;;;;;;4992419;28;20513;-68
2023/06/19 11:55:47;;;;;;;5.17;4.87;;;40.00;45.10;;;;;;5013949;28;20453;-69
2023/06/19 11:58:15;;;;;;;5.30;5.00;;;39.70;44.60;;;;;;5015160;28;20488;-68
2023/06/19 12:00:41;;;;;;;4.33;4.00;;;39.50;45.40;;;;;;5015450;28;20194;-68
2023/06/19 12:03:07;;;;;;;5.27;5.00;;;39.30;45.40;;;;;;5014460;28;20434;-68
2023/06/19 12:05:33;;;;;;;4.60;4.30;;;40.00;44.70;;;;;;5015361;28;20426;-68
2023/06/19 12:08:01;;;;;;;4.50;4.27;;;39.80;44.60;;;;;;5015383;28;20221;-68
2023/06/19 12:10:27;;;;;;;5.40;5.10;;;40.30;44.40;;;;;;5013930;28;20211;-68
2023/06/19 12:12:53;;;;;;;5.33;4.83;;;40.50;44.20;;;;;;5015183;28;20432;-68
2023/06/19 12:15:18;;;;;;;5.90;4.70;;;40.80;43.80;;;;;;5015179;28;20213;-67
2023/06/19 12:17:45;;;;;;;7.33;5.63;;;41.30;43.20;;;;;;5015107;28;20202;-68
2023/06/19 12:20:13;;;;;;;4.70;4.40;;;42.30;42.30;;;;;;5003754;28;20234;-68
2023/06/19 12:22:39;;;;;;;4.47;4.27;;;42.40;41.40;;;;;;4995593;28;20429;-68
2023/06/19 12:25:05;;;;;;;5.37;4.87;;;43.00;40.00;;;;;;4995376;28;20422;-68
2023/06/19 12:27:30;;;;;;;5.10;4.80;;;42.90;40.70;;;;;;5014227;28;20433;-68
2023/06/19 12:29:56;;;;;;;5.30;5.10;;;43.00;40.10;;;;;;5014470;28;20202;-68
2023/06/19 12:32:21;;;;;;;4.83;4.43;;;42.80;39.30;;;;;;5014927;28;20619;-68
2023/06/19 12:34:47;;;;;;;5.53;4.73;;;42.70;39.20;;;;;;5015021;28;20174;-68
2023/06/19 12:37:19;;;;;;;4.80;4.47;;;41.80;39.30;;;;;;5014749;28;20199;-69
2023/06/19 12:39:44;;;;;;;4.93;4.63;;;40.60;39.80;;;;;;5014362;28;20191;-69
2023/06/19 12:42:13;;;;;;;5.17;4.70;;;38.70;41.80;;;;;;5012902;28;20453;-68
2023/06/19 12:44:39;;;;;;;4.70;4.50;;;37.50;43.20;;;;;;5014511;28;20635;-70